createdAt,value
2018-06-04T00:00:24.989Z,100114.27
2018-06-04T00:02:53.735Z,100107.98
2018-06-04T00:05:22.210Z,100108.82
2018-06-04T00:07:51.339Z,100105.78
2018-06-04T00:10:20.498Z,100106.69
2018-06-04T00:12:49.190Z,100111.45
2018-06-04T00:15:17.626Z,100110.46
2018-06-04T00:17:46.070Z,100116.13
2018-06-04T00:20:14.649Z,100113.88
2018-06-04T00:22:43.485Z,100121.87
2018-06-04T00:25:11.910Z,100113.01
2018-06-04T00:27:40.482Z,100113.05
2018-06-04T00:30:08.899Z,100125.50
2018-06-04T00:32:37.394Z,100124.66
2018-06-04T00:35:05.897Z,100126.75
2018-06-04T00:37:34.537Z,100121.42
2018-06-04T00:40:03.033Z,100118.75
2018-06-04T00:42:31.903Z,100118.27
2018-06-04T00:45:00.348Z,100124.84
2018-06-04T00:47:29.150Z,100119.05
2018-06-04T00:49:57.865Z,100123.55
2018-06-04T00:52:26.313Z,100121.76
2018-06-04T00:54:55.233Z,100120.01
2018-06-04T00:57:23.753Z,100117.38
2018-06-04T00:59:52.349Z,100120.92
2018-06-04T01:02:21.051Z,100133.33
2018-06-04T01:04:49.738Z,100123.59
2018-06-04T01:07:18.178Z,100122.72
2018-06-04T01:09:46.600Z,100128.46
2018-06-04T01:12:15.486Z,100132.91
2018-06-04T01:14:44.482Z,100127.55
2018-06-04T01:17:13.277Z,100136.88
2018-06-04T01:19:41.727Z,100134.20
2018-06-04T01:22:10.772Z,100132.00
2018-06-04T01:24:39.943Z,100128.87
2018-06-04T01:27:08.374Z,100128.00
2018-06-04T01:29:37.473Z,100130.70
2018-06-04T01:32:05.894Z,100136.08
2018-06-04T01:34:34.317Z,100139.70
2018-06-04T01:37:03.026Z,100134.44
2018-06-04T01:39:31.522Z,100134.09
2018-06-04T01:42:00.026Z,100131.05
2018-06-04T01:44:28.558Z,100130.33
2018-06-04T01:46:57.058Z,100138.47
2018-06-04T01:49:25.504Z,100145.70
2018-06-04T01:51:54.022Z,100148.43
2018-06-04T01:54:22.553Z,100148.09
2018-06-04T01:56:50.987Z,100150.82
2018-06-04T01:59:19.522Z,100147.81
2018-06-04T02:01:48.366Z,100148.38
2018-06-04T02:04:16.806Z,100145.36
2018-06-04T02:06:45.360Z,100153.03
2018-06-04T02:09:14.322Z,100166.41
2018-06-04T02:11:43.014Z,100178.88
2018-06-04T02:14:11.503Z,100174.98
2018-06-04T02:16:40.120Z,100182.17
2018-06-04T02:19:08.767Z,100187.10
2018-06-04T02:21:37.257Z,100186.25
2018-06-04T02:24:05.831Z,100180.97
2018-06-04T02:26:34.986Z,100185.45
2018-06-04T02:29:03.405Z,100182.78
2018-06-04T02:31:31.904Z,100191.67
2018-06-04T02:34:00.571Z,100192.06
2018-06-04T02:36:29.062Z,100177.88
2018-06-04T02:38:57.514Z,100184.11
2018-06-04T02:41:26.329Z,100183.30
2018-06-04T02:43:54.781Z,100183.40
2018-06-04T02:46:23.925Z,100180.80
2018-06-04T02:48:52.438Z,100186.64
2018-06-04T02:51:20.902Z,100186.73
2018-06-04T02:53:50.053Z,100185.02
2018-06-04T02:56:18.616Z,100191.21
2018-06-04T02:58:47.139Z,100194.48
2018-06-04T03:01:16.274Z,100203.84
2018-06-04T03:03:45.101Z,100200.80
2018-06-04T03:06:13.542Z,100203.09
2018-06-04T03:08:41.979Z,100203.13
2018-06-04T03:11:10.482Z,100206.69
2018-06-04T03:13:39.002Z,100211.13
2018-06-04T03:16:07.430Z,100218.69
2018-06-04T03:18:36.235Z,100223.61
2018-06-04T03:21:04.699Z,100221.00
2018-06-04T03:23:33.556Z,100236.54
2018-06-04T03:26:02.066Z,100234.81
2018-06-04T03:28:30.690Z,100236.22
2018-06-04T03:30:59.367Z,100231.89
2018-06-04T03:33:28.096Z,100239.02
2018-06-04T03:35:57.787Z,100239.47
2018-06-04T03:38:26.294Z,100253.13
2018-06-04T03:40:55.288Z,100246.46
2018-06-04T03:43:23.726Z,100252.62
2018-06-04T03:45:52.435Z,100257.49
2018-06-04T03:48:20.948Z,100236.94
2018-06-04T03:50:49.397Z,100266.05
2018-06-04T03:53:17.897Z,100268.84
2018-06-04T03:55:46.641Z,100278.25
2018-06-04T03:58:15.099Z,100278.70
2018-06-04T04:00:44.241Z,100279.58
2018-06-04T04:03:12.946Z,100273.94
2018-06-04T04:05:42.444Z,100282.00
2018-06-04T04:08:11.059Z,100281.63
2018-06-04T04:10:40.234Z,100284.31
2018-06-04T04:13:08.668Z,100282.13
2018-06-04T04:15:37.210Z,100287.09
2018-06-04T04:18:05.967Z,100292.52
2018-06-04T04:20:34.567Z,100288.55
2018-06-04T04:23:03.006Z,100295.23
2018-06-04T04:25:31.534Z,100303.66
2018-06-04T04:28:00.555Z,100298.36
2018-06-04T04:30:29.605Z,100298.86
2018-06-04T04:32:58.412Z,100303.31
2018-06-04T04:35:26.898Z,100313.11
2018-06-04T04:37:55.845Z,100312.72
2018-06-04T04:40:24.730Z,100313.66
2018-06-04T04:42:53.178Z,100307.52
2018-06-04T04:45:21.834Z,100320.75
2018-06-04T04:47:50.271Z,100313.66
2018-06-04T04:50:18.725Z,100317.56
2018-06-04T04:52:48.106Z,100318.89
2018-06-04T04:55:16.537Z,100320.12
2018-06-04T04:57:44.996Z,100324.89
2018-06-04T05:00:13.456Z,100321.39
2018-06-04T05:02:41.869Z,100324.97
2018-06-04T05:05:10.433Z,100325.78
2018-06-04T05:07:38.937Z,100325.19
2018-06-04T05:10:07.358Z,100325.57
2018-06-04T05:12:35.903Z,100330.92
2018-06-04T05:15:08.562Z,100335.79
2018-06-04T05:17:37.038Z,100344.66
2018-06-04T05:20:05.477Z,100341.64
2018-06-04T05:22:33.997Z,100337.70
2018-06-04T05:25:02.439Z,100342.02
2018-06-04T05:27:30.920Z,100333.54
2018-06-04T05:29:59.770Z,100335.68
2018-06-04T05:32:28.842Z,100332.59
2018-06-04T05:34:57.250Z,100335.79
2018-06-04T05:37:26.064Z,100333.20
2018-06-04T05:39:54.548Z,100341.14
2018-06-04T05:42:23.089Z,100334.55
2018-06-04T05:44:51.889Z,100337.31
2018-06-04T05:47:20.337Z,100332.58
2018-06-04T05:49:48.746Z,100341.02
2018-06-04T05:52:17.279Z,100337.05
2018-06-04T05:54:45.846Z,100347.73
2018-06-04T05:57:14.422Z,100340.73
2018-06-04T05:59:43.085Z,100342.09
2018-06-04T06:02:11.805Z,100350.51
2018-06-04T06:04:40.373Z,100350.06
2018-06-04T06:07:09.534Z,100346.14
2018-06-04T06:09:37.978Z,100343.97
2018-06-04T06:12:06.562Z,100341.77
2018-06-04T06:14:35.122Z,100339.98
2018-06-04T06:17:03.801Z,100344.34
2018-06-04T06:19:32.220Z,100346.08
2018-06-04T06:22:00.778Z,100345.55
2018-06-04T06:24:29.553Z,100351.20
2018-06-04T06:26:58.073Z,100351.11
2018-06-04T06:29:26.784Z,100355.84
2018-06-04T06:31:55.265Z,100344.69
2018-06-04T06:34:24.152Z,100356.33
2018-06-04T06:36:52.806Z,100351.20
2018-06-04T06:39:21.298Z,100349.26
2018-06-04T06:41:49.955Z,100350.47
2018-06-04T06:44:19.016Z,100352.58
2018-06-04T06:46:47.714Z,100359.47
2018-06-04T06:49:16.354Z,100360.67
2018-06-04T06:51:45.462Z,100363.38
2018-06-04T06:54:14.282Z,100369.26
2018-06-04T06:56:42.824Z,100367.17
2018-06-04T06:59:11.742Z,100361.45
2018-06-04T07:01:40.510Z,100361.45
2018-06-04T07:04:08.941Z,100366.83
2018-06-04T07:06:37.374Z,100367.28
2018-06-04T07:09:08.786Z,100370.34
2018-06-04T07:11:37.934Z,100362.81
2018-06-04T07:14:06.845Z,100368.98
2018-06-04T07:16:35.646Z,100366.65
2018-06-04T07:19:04.301Z,100367.80
2018-06-04T07:21:32.806Z,100374.27
2018-06-04T07:24:02.030Z,100371.81
2018-06-04T07:26:30.545Z,100364.41
2018-06-04T07:28:59.068Z,100366.67
2018-06-04T07:31:27.758Z,100366.72
2018-06-04T07:33:56.414Z,100364.34
2018-06-04T07:36:25.629Z,100366.15
2018-06-04T07:38:54.103Z,100356.97
2018-06-04T07:41:23.319Z,100356.92
2018-06-04T07:43:51.867Z,100365.28
2018-06-04T07:46:20.322Z,100357.48
2018-06-04T07:48:48.963Z,100355.95
2018-06-04T07:51:17.816Z,100363.22
2018-06-04T07:53:46.295Z,100361.77
2018-06-04T07:56:14.709Z,100365.89
2018-06-04T07:58:43.210Z,100354.13
2018-06-04T08:01:11.915Z,100357.66
2018-06-04T08:03:40.322Z,100360.56
2018-06-04T08:06:09.414Z,100360.28
2018-06-04T08:08:38.353Z,100364.55
2018-06-04T08:11:06.790Z,100374.58
2018-06-04T08:13:35.369Z,100366.78
2018-06-04T08:16:03.986Z,100366.25
2018-06-04T08:18:32.396Z,100371.59
2018-06-04T08:21:00.805Z,100372.84
2018-06-04T08:23:29.921Z,100367.88
2018-06-04T08:25:58.721Z,100379.33
2018-06-04T08:28:27.503Z,100378.00
2018-06-04T08:30:55.937Z,100373.20
2018-06-04T08:33:24.697Z,100378.95
2018-06-04T08:35:53.534Z,100383.24
2018-06-04T08:38:22.245Z,100378.98
2018-06-04T08:40:50.920Z,100380.23
2018-06-04T08:43:19.825Z,100386.42
2018-06-04T08:45:48.406Z,100382.32
2018-06-04T08:48:17.270Z,100377.20
2018-06-04T08:50:46.265Z,100374.78
2018-06-04T08:53:14.699Z,100385.00
2018-06-04T08:55:43.558Z,100390.00
2018-06-04T08:58:12.322Z,100391.45
2018-06-04T09:00:40.930Z,100389.90
2018-06-04T09:03:09.357Z,100395.64
2018-06-04T09:05:38.374Z,100394.84
2018-06-04T09:08:06.806Z,100386.09
2018-06-04T09:10:35.763Z,100374.18
2018-06-04T09:13:04.679Z,100381.09
2018-06-04T09:15:33.252Z,100389.70
2018-06-04T09:18:01.663Z,100378.66
2018-06-04T09:20:30.538Z,100380.26
2018-06-04T09:22:59.105Z,100376.90
2018-06-04T09:25:27.605Z,100379.27
2018-06-04T09:27:56.666Z,100381.48
2018-06-04T09:30:25.200Z,100383.79
2018-06-04T09:32:53.662Z,100388.22
2018-06-04T09:35:22.327Z,100385.70
2018-06-04T09:37:50.786Z,100390.39
2018-06-04T09:40:19.521Z,100383.77
2018-06-04T09:42:48.095Z,100395.39
2018-06-04T09:45:16.554Z,100391.84
2018-06-04T09:47:45.058Z,100390.04
2018-06-04T09:50:20.475Z,100390.84
2018-06-04T09:52:49.048Z,100397.70
2018-06-04T09:55:17.925Z,100391.98
2018-06-04T09:57:46.866Z,100395.17
2018-06-04T10:00:19.438Z,100391.33
2018-06-04T10:02:48.610Z,100396.42
2018-06-04T10:05:17.262Z,100390.91
2018-06-04T10:07:45.681Z,100400.58
2018-06-04T10:10:14.390Z,100399.32
2018-06-04T10:12:42.809Z,100403.37
2018-06-04T10:15:11.394Z,100400.44
2018-06-04T10:17:39.907Z,100405.66
2018-06-04T10:20:08.330Z,100397.00
2018-06-04T10:22:37.219Z,100395.75
2018-06-04T10:25:06.435Z,100385.98
2018-06-04T10:27:34.909Z,100382.84
2018-06-04T10:30:03.570Z,100396.17
2018-06-04T10:32:32.432Z,100401.67
2018-06-04T10:35:00.844Z,100400.33
2018-06-04T10:37:29.598Z,100395.00
2018-06-04T10:39:58.879Z,100398.28
2018-06-04T10:42:27.710Z,100395.96
2018-06-04T10:44:56.221Z,100400.78
2018-06-04T10:47:24.721Z,100393.55
2018-06-04T10:49:53.220Z,100389.14
2018-06-04T10:52:22.298Z,100392.53
2018-06-04T10:54:51.005Z,100389.93
2018-06-04T10:57:19.497Z,100383.77
2018-06-04T10:59:48.010Z,100395.30
2018-06-04T11:02:16.766Z,100301.00
2018-06-04T11:04:45.227Z,100384.18
2018-06-04T11:07:14.254Z,100390.15
2018-06-04T11:09:42.845Z,100395.91
2018-06-04T11:12:11.411Z,100393.41
2018-06-04T11:14:40.009Z,100400.50
2018-06-04T11:17:08.766Z,100397.04
2018-06-04T11:19:37.175Z,100394.36
2018-06-04T11:22:05.594Z,100392.08
2018-06-04T11:24:34.099Z,100390.55
2018-06-04T11:27:02.514Z,100393.67
2018-06-04T11:29:31.054Z,100388.59
2018-06-04T11:31:59.682Z,100386.74
2018-06-04T11:34:28.327Z,100381.05
2018-06-04T11:36:57.089Z,100387.97
2018-06-04T11:39:25.766Z,100384.78
2018-06-04T11:41:54.185Z,100379.92
2018-06-04T11:44:29.825Z,100375.59
2018-06-04T11:46:58.682Z,100384.62
2018-06-04T11:49:27.093Z,100387.08
2018-06-04T11:51:56.314Z,100382.84
2018-06-04T11:54:24.844Z,100389.22
2018-06-04T11:56:53.255Z,100384.73
2018-06-04T11:59:21.957Z,100389.95
2018-06-04T12:01:50.521Z,100388.54
2018-06-04T12:04:18.941Z,100399.17
2018-06-04T12:06:47.777Z,100389.37
2018-06-04T12:09:16.444Z,100388.11
2018-06-04T12:11:44.888Z,100391.97
2018-06-04T12:14:13.333Z,100402.90
2018-06-04T12:16:42.197Z,100384.22
2018-06-04T12:19:10.628Z,100389.20
2018-06-04T12:21:39.284Z,100389.47
2018-06-04T12:24:07.941Z,100392.66
2018-06-04T12:26:36.370Z,100387.43
2018-06-04T12:29:05.245Z,100384.06
2018-06-04T12:31:33.736Z,100382.02
2018-06-04T12:34:02.303Z,100381.44
2018-06-04T12:36:31.117Z,100382.50
2018-06-04T12:38:59.770Z,100380.42
2018-06-04T12:41:28.197Z,100381.47
2018-06-04T12:43:56.736Z,100389.07
2018-06-04T12:46:25.699Z,100383.41
2018-06-04T12:48:54.105Z,100393.30
2018-06-04T12:51:22.637Z,100373.19
2018-06-04T12:53:51.249Z,100377.16
2018-06-04T12:56:19.663Z,100352.13
2018-06-04T12:58:48.977Z,100369.52
2018-06-04T13:01:18.226Z,100367.11
2018-06-04T13:03:46.653Z,100366.23
2018-06-04T13:06:15.161Z,100354.45
2018-06-04T13:08:43.736Z,100356.66
2018-06-04T13:11:12.184Z,100354.33
2018-06-04T13:13:41.001Z,100240.53
2018-06-04T13:16:09.773Z,100358.69
2018-06-04T13:18:38.209Z,100355.37
2018-06-04T13:21:06.749Z,100362.34
2018-06-04T13:23:36.790Z,100361.52
2018-06-04T13:26:05.213Z,100360.08
2018-06-04T13:28:34.014Z,100362.80
2018-06-04T13:31:02.529Z,100353.24
2018-06-04T13:33:31.106Z,100348.49
2018-06-04T13:35:59.933Z,100350.24
2018-06-04T13:38:28.563Z,100350.16
2018-06-04T13:40:56.969Z,100349.17
2018-06-04T13:43:25.610Z,100344.31
2018-06-04T13:45:54.129Z,100347.19
2018-06-04T13:48:23.717Z,100346.25
2018-06-04T13:50:52.296Z,100338.23
2018-06-04T13:53:20.963Z,100337.61
2018-06-04T13:55:49.797Z,100343.84
2018-06-04T13:58:18.385Z,100339.13
2018-06-04T14:00:46.973Z,100337.16
2018-06-04T14:03:15.442Z,100340.62
2018-06-04T14:05:45.174Z,100340.72
2018-06-04T14:08:14.053Z,100334.97
2018-06-04T14:10:42.464Z,100339.19
2018-06-04T14:13:11.089Z,100334.05
2018-06-04T14:15:39.585Z,100326.70
2018-06-04T14:18:08.080Z,100323.18
2018-06-04T14:20:37.017Z,100326.80
2018-06-04T14:23:06.065Z,100331.96
2018-06-04T14:25:34.477Z,100335.67
2018-06-04T14:28:03.377Z,100325.55
2018-06-04T14:30:31.961Z,100318.14
2018-06-04T14:33:00.393Z,100320.05
2018-06-04T14:35:29.129Z,100311.77
2018-06-04T14:37:58.673Z,100314.34
2018-06-04T14:40:27.221Z,100312.73
2018-06-04T14:42:55.882Z,100317.69
2018-06-04T14:45:24.441Z,100305.63
2018-06-04T14:47:53.793Z,100311.06
2018-06-04T14:50:22.573Z,100308.77
2018-06-04T14:52:51.073Z,100310.42
2018-06-04T14:55:19.620Z,100316.38
2018-06-04T14:57:48.153Z,100311.29
2018-06-04T15:00:16.653Z,100314.70
2018-06-04T15:02:45.094Z,100307.61
2018-06-04T15:05:13.656Z,100309.33
2018-06-04T15:07:42.235Z,100306.53
2018-06-04T15:10:10.705Z,100305.73
2018-06-04T15:12:39.214Z,100309.47
2018-06-04T15:15:07.903Z,100311.64
2018-06-04T15:17:36.317Z,100310.61
2018-06-04T15:20:05.202Z,100315.35
2018-06-04T15:22:33.659Z,100330.59
2018-06-04T15:25:02.082Z,100319.45
2018-06-04T15:27:30.651Z,100319.70
2018-06-04T15:30:00.257Z,100208.41
2018-06-04T15:32:28.811Z,100319.33
2018-06-04T15:34:57.722Z,100321.47
2018-06-04T15:37:26.680Z,100321.48
2018-06-04T15:39:55.441Z,100311.19
2018-06-04T15:42:23.997Z,100324.19
2018-06-04T15:44:53.219Z,100324.34
2018-06-04T15:47:21.669Z,100331.63
2018-06-04T15:49:50.713Z,100344.73
2018-06-04T15:52:19.249Z,100352.86
2018-06-04T15:54:48.307Z,100360.81
2018-06-04T15:57:18.882Z,100381.02
2018-06-04T15:59:47.284Z,100383.75
2018-06-04T16:02:15.701Z,100390.84
2018-06-04T16:04:46.006Z,100388.05
2018-06-04T16:07:14.437Z,100395.45
2018-06-04T16:09:47.417Z,100406.25
2018-06-04T16:12:15.827Z,100414.84
2018-06-04T16:14:44.285Z,100418.34
2018-06-04T16:17:13.500Z,100409.70
2018-06-04T16:19:41.969Z,100408.05
2018-06-04T16:22:10.455Z,100410.84
2018-06-04T16:24:39.577Z,100424.07
2018-06-04T16:27:08.009Z,100422.69
2018-06-04T16:29:36.619Z,100416.59
2018-06-04T16:32:05.634Z,100423.28
2018-06-04T16:34:34.098Z,100425.44
2018-06-04T16:37:02.585Z,100430.70
2018-06-04T16:39:31.771Z,100427.63
2018-06-04T16:42:03.423Z,100432.56
2018-06-04T16:44:31.991Z,100433.77
2018-06-04T16:47:00.538Z,99987.62
2018-06-04T16:49:29.984Z,100441.95
2018-06-04T16:51:59.245Z,100450.12
2018-06-04T16:54:29.632Z,100445.78
2018-06-04T16:56:58.877Z,100447.81
2018-06-04T16:59:27.913Z,100444.41
2018-06-04T17:01:56.670Z,100449.81
2018-06-04T17:04:25.112Z,100457.97
2018-06-04T17:06:53.791Z,100461.61
2018-06-04T17:09:22.412Z,100460.06
2018-06-04T17:11:50.833Z,100469.34
2018-06-04T17:14:26.377Z,100472.76
2018-06-04T17:16:54.821Z,100475.92
2018-06-04T17:19:23.269Z,100486.00
2018-06-04T17:21:52.056Z,100493.23
2018-06-04T17:24:20.485Z,100496.34
2018-06-04T17:26:48.906Z,100499.41
2018-06-04T17:29:18.103Z,100507.52
2018-06-04T17:31:46.537Z,100504.98
2018-06-04T17:34:15.118Z,100510.14
2018-06-04T17:36:43.876Z,100511.52
2018-06-04T17:39:12.289Z,100511.80
2018-06-04T17:41:40.781Z,100507.07
2018-06-04T17:44:09.785Z,100517.46
2018-06-04T17:46:38.310Z,100515.02
2018-06-04T17:49:06.781Z,100511.77
2018-06-04T17:51:36.686Z,100517.70
2018-06-04T17:54:05.110Z,100519.55
2018-06-04T17:56:33.755Z,100523.55
2018-06-04T17:59:21.553Z,100519.58
2018-06-04T18:01:50.075Z,100520.09
2018-06-04T18:04:18.493Z,100526.86
2018-06-04T18:06:47.913Z,100527.93
2018-06-04T18:09:18.855Z,100522.33
2018-06-04T18:11:47.339Z,100522.83
2018-06-04T18:14:16.222Z,100532.14
2018-06-04T18:16:44.891Z,100534.45
2018-06-04T18:19:13.356Z,100535.90
2018-06-04T18:21:41.865Z,100536.81
2018-06-04T18:24:10.376Z,100539.02
2018-06-04T18:26:41.755Z,100539.55
2018-06-04T18:29:10.297Z,100545.80
2018-06-04T18:31:39.249Z,100552.95
2018-06-04T18:34:07.657Z,100557.00
2018-06-04T18:36:36.086Z,100559.30
2018-06-04T18:39:06.248Z,100553.62
2018-06-04T18:41:37.682Z,100565.19
2018-06-04T18:44:06.623Z,100563.00
2018-06-04T18:46:35.653Z,100567.89
2018-06-04T18:49:06.401Z,100553.33
2018-06-04T18:51:35.081Z,100574.94
2018-06-04T18:54:03.530Z,100581.98
2018-06-04T18:56:32.089Z,100584.62
2018-06-04T18:59:00.759Z,100594.74
2018-06-04T19:01:29.206Z,100592.95
2018-06-04T19:03:57.748Z,100595.60
2018-06-04T19:06:26.579Z,100600.89
2018-06-04T19:08:55.161Z,100605.27
2018-06-04T19:11:23.831Z,100608.78
2018-06-04T19:13:52.378Z,100612.77
2018-06-04T19:16:20.813Z,100620.66
2018-06-04T19:18:49.257Z,100622.84
2018-06-04T19:21:17.757Z,100623.63
2018-06-04T19:23:46.177Z,100638.11
2018-06-04T19:26:15.082Z,100627.47
2018-06-04T19:28:44.200Z,100628.72
2018-06-04T19:31:12.708Z,100628.67
2018-06-04T19:33:41.237Z,100637.05
2018-06-04T19:36:09.665Z,100639.63
2018-06-04T19:38:38.098Z,100640.05
2018-06-04T19:41:06.667Z,100643.98
2018-06-04T19:43:35.106Z,100660.65
2018-06-04T19:46:03.567Z,100657.89
2018-06-04T19:48:32.337Z,100658.70
2018-06-04T19:51:00.843Z,100665.26
2018-06-04T19:53:29.329Z,100665.26
2018-06-04T19:55:57.777Z,100662.22
2018-06-04T19:58:26.277Z,100666.28
2018-06-04T20:00:54.939Z,100672.54
2018-06-04T20:03:24.027Z,100680.13
2018-06-04T20:05:52.529Z,100681.37
2018-06-04T20:08:20.942Z,100681.30
2018-06-04T20:10:49.962Z,100683.11
2018-06-04T20:13:18.633Z,100687.07
2018-06-04T20:15:47.043Z,100695.32
2018-06-04T20:18:15.577Z,100703.48
2018-06-04T20:20:44.390Z,100703.81
2018-06-04T20:23:14.701Z,100704.70
2018-06-04T20:25:43.298Z,100712.23
2018-06-04T20:28:12.058Z,100707.49
2018-06-04T20:30:40.478Z,100715.47
2018-06-04T20:33:09.313Z,100599.09
2018-06-04T20:35:38.043Z,100714.03
2018-06-04T20:38:06.478Z,100716.95
2018-06-04T20:40:34.956Z,100723.86
2018-06-04T20:43:07.289Z,100722.10
2018-06-04T20:45:38.077Z,100431.76
2018-06-04T20:48:07.890Z,100732.42
2018-06-04T20:50:37.289Z,100734.59
2018-06-04T20:53:08.587Z,100738.98
2018-06-04T20:55:38.450Z,100733.77
2018-06-04T20:58:07.386Z,100739.66
2018-06-04T21:00:39.806Z,100738.89
2018-06-04T21:03:09.870Z,100741.19
2018-06-04T21:05:39.357Z,100741.69
2018-06-04T21:08:11.329Z,100743.98
2018-06-04T21:10:40.334Z,100743.61
2018-06-04T21:13:08.841Z,100623.42
2018-06-04T21:15:37.593Z,100749.88
2018-06-04T21:18:06.021Z,100754.32
2018-06-04T21:20:34.513Z,100758.78
2018-06-04T21:23:03.672Z,100759.24
2018-06-04T21:25:32.108Z,100764.98
2018-06-04T21:28:00.685Z,100758.39
2018-06-04T21:30:29.375Z,100766.34
2018-06-04T21:32:57.797Z,100766.78
2018-06-04T21:35:26.553Z,100769.86
2018-06-04T21:37:55.377Z,100770.72
2018-06-04T21:40:23.808Z,100768.49
2018-06-04T21:42:52.510Z,100762.34
2018-06-04T21:45:21.407Z,100776.03
2018-06-04T21:47:49.819Z,100772.51
2018-06-04T21:50:18.544Z,100774.66
2018-06-04T21:52:47.542Z,100779.04
2018-06-04T21:55:15.988Z,100783.85
2018-06-04T21:57:44.598Z,100777.22
2018-06-04T22:00:13.229Z,100785.52
2018-06-04T22:02:41.641Z,100789.44
2018-06-04T22:05:10.259Z,100793.77
2018-06-04T22:07:39.986Z,100791.58
2018-06-04T22:10:08.381Z,100796.84
2018-06-04T22:12:37.108Z,100794.16
2018-06-04T22:15:05.677Z,100798.05
2018-06-04T22:17:34.126Z,100793.59
2018-06-04T22:20:02.550Z,100798.39
2018-06-04T22:22:31.399Z,100803.23
2018-06-04T22:24:59.815Z,100801.81
2018-06-04T22:27:28.330Z,100802.20
2018-06-04T22:29:57.506Z,100800.80
2018-06-04T22:32:25.909Z,100796.37
2018-06-04T22:34:54.333Z,100813.49
2018-06-04T22:37:24.965Z,100814.76
2018-06-04T22:39:53.373Z,100808.11
2018-06-04T22:42:21.788Z,100825.66
2018-06-04T22:44:51.141Z,100821.64
2018-06-04T22:47:19.557Z,100832.12
2018-06-04T22:49:47.969Z,100834.70
2018-06-04T22:52:20.577Z,100835.55
2018-06-04T22:54:49.395Z,100831.97
2018-06-04T22:57:17.801Z,100836.73
2018-06-04T22:59:47.177Z,100844.88
2018-06-04T23:02:15.602Z,100839.83
2018-06-04T23:04:44.017Z,100841.36
2018-06-04T23:07:13.021Z,100848.19
2018-06-04T23:09:41.432Z,100851.98
2018-06-04T23:12:09.841Z,100851.81
2018-06-04T23:14:38.981Z,100848.52
2018-06-04T23:17:07.397Z,100852.77
2018-06-04T23:19:35.866Z,100866.16
2018-06-04T23:22:04.828Z,100861.59
2018-06-04T23:24:33.790Z,100860.56
2018-06-04T23:27:02.198Z,100864.77
2018-06-04T23:29:31.212Z,100871.23
2018-06-04T23:32:00.171Z,100863.21
2018-06-04T23:34:28.607Z,100860.00
2018-06-04T23:36:57.581Z,100866.85
2018-06-04T23:39:28.179Z,100866.70
2018-06-04T23:42:00.361Z,100874.85
2018-06-04T23:44:28.809Z,100878.27
2018-06-04T23:46:57.218Z,100874.20
2018-06-04T23:49:27.657Z,100874.98
2018-06-04T23:51:56.321Z,100873.97
2018-06-04T23:54:24.753Z,100876.48
2018-06-04T23:56:54.098Z,100881.67
2018-06-04T23:59:23.446Z,100892.48
